Search for airport 
image banner adimage banner adimage banner ad
image banner ad

CRM4 - Cormier

Located in , Canada

ICAO - , IATA -

Data provided by Airmate  

General information

Coordinates: N46°10'51" W64°22'32"
Elevation is 84 feet MSL.
Magnetic variation is -18.0167° East
View others Airports in New Brunswick

Operational data

Special qualification required
Current time UTC:
Current local time:
METAR: CYQM 221600Z 17013G18KT 15SM SCT026 BKN035 BKN150 BKN240 18/14 A2980 RMK CU3SC2AC1CI1 CI TR SLP094 DENSITY ALT 800FT
TAF: TAF CYQM 221140Z 2212/2312 17010KT P6SM FEW006 BKN150 TEMPO 2212/2214 4SM BR BKN006 OVC012 FM221400 18012G22KT P6SM SCT015 OVC040 TEMPO 2214/2219 BKN015 OVC040 BECMG 2214/2216 21015G25KT FM221900 21018G28KT P6SM -SHRA BKN040 FM222200 21012G22KT P6SM BKN015 OVC030 FM230400 20005KT 6SM BR OVC010 PROB30 2304/2312 2SM BR BKN005 RMK NXT FCST BY 221800Z
View NOTAMs / SUP AIP / TFR affecting this airport [VIEW]
Communications frequencies: [VIEW]

Runways:

RWY identifierQFULength (ft)Width (ft)SurfaceLDA (ft)
0857°300080GRASS
26237°300080GRASS

Airport contact information

Address: Canada

Satellite view of CRM4